Time;durP1;ratioP1;P1;durP2;ratioP2;P2;SDS_P1;SDS_P2;PMS_P1;PMS_P2;Temp;Humidity;BMP_temperature;BMP_pressure;BME280_temperature;BME280_humidity;BME280_pressure;Samples;Min_cycle;Max_cycle;Signal;HPM_P1;HPM_P2
2020/12/03 00:01:46;;;;;;;109.30;48.53;;;;;;;-2.72;100.00;100734.81;5023863;28;20029;-70
2020/12/03 00:04:12;;;;;;;116.60;49.83;;;;;;;-2.77;100.00;100728.63;5023615;28;20038;-70
2020/12/03 00:06:42;;;;;;;115.80;49.63;;;;;;;-2.83;100.00;100731.00;5007751;28;20041;-69
2020/12/03 00:09:14;;;;;;;113.47;52.30;;;;;;;-2.72;100.00;100726.19;5007101;28;20049;-69
2020/12/03 00:11:43;;;;;;;113.43;52.07;;;;;;;-2.75;100.00;100731.25;5007339;28;20746;-70
2020/12/03 00:14:10;;;;;;;112.63;50.07;;;;;;;-2.77;100.00;100723.47;5007496;28;20526;-69
2020/12/03 00:16:36;;;;;;;109.90;50.33;;;;;;;-2.77;100.00;100738.97;4997891;28;20037;-71
2020/12/03 00:19:04;;;;;;;110.63;49.23;;;;;;;-2.80;100.00;100730.22;4990861;28;20064;-69
2020/12/03 00:21:42;;;;;;;114.13;50.40;;;;;;;-2.85;100.00;100728.38;4990309;28;20091;-69
2020/12/03 00:24:10;;;;;;;101.63;47.33;;;;;;;-2.87;100.00;100719.66;5025742;28;20049;-68
2020/12/03 00:26:36;;;;;;;114.67;49.73;;;;;;;-2.94;100.00;100720.28;5008077;28;20482;-69
2020/12/03 00:29:05;;;;;;;114.03;50.40;;;;;;;-2.97;100.00;100730.50;5007070;28;20102;-70
2020/12/03 00:31:31;;;;;;;117.70;51.67;;;;;;;-2.92;100.00;100730.69;5025133;28;20033;-70
2020/12/03 00:33:58;;;;;;;115.60;50.23;;;;;;;-2.92;100.00;100736.72;5007023;28;20116;-69
2020/12/03 00:36:25;;;;;;;119.10;53.93;;;;;;;-2.94;100.00;100732.34;5007458;28;20151;-70
2020/12/03 00:38:51;;;;;;;102.17;46.60;;;;;;;-2.92;100.00;100741.03;5025928;28;20045;-69
2020/12/03 00:41:18;;;;;;;112.83;50.40;;;;;;;-2.81;100.00;100737.09;5006465;28;20041;-70
2020/12/03 00:43:45;;;;;;;106.27;48.13;;;;;;;-2.83;100.00;100739.63;5008439;28;20383;-69
2020/12/03 00:46:12;;;;;;;114.40;50.00;;;;;;;-2.74;100.00;100733.91;5010875;28;20050;-70
2020/12/03 00:48:38;;;;;;;113.27;49.27;;;;;;;-2.77;100.00;100727.75;5025459;28;20054;-70
2020/12/03 00:51:04;;;;;;;101.60;48.43;;;;;;;-2.81;100.00;100726.75;4989417;28;20520;-69
2020/12/03 00:53:31;;;;;;;113.60;48.03;;;;;;;-2.83;100.00;100734.47;5024847;28;20069;-70
2020/12/03 00:55:57;;;;;;;111.57;50.60;;;;;;;-2.77;100.00;100740.69;5004119;28;20128;-69
2020/12/03 00:58:24;;;;;;;102.10;46.20;;;;;;;-2.80;100.00;100750.91;5024406;28;20049;-68
2020/12/03 01:00:50;;;;;;;101.60;44.97;;;;;;;-2.81;100.00;100746.56;5019010;28;20040;-70
2020/12/03 01:03:17;;;;;;;111.30;46.87;;;;;;;-2.80;100.00;100740.56;5024680;28;20037;-70
2020/12/03 01:05:43;;;;;;;96.93;46.77;;;;;;;-2.77;100.00;100738.09;5006278;28;20097;-70
2020/12/03 01:08:09;;;;;;;111.67;47.87;;;;;;;-2.80;100.00;100744.03;5024949;28;20137;-70
2020/12/03 01:10:37;;;;;;;100.27;44.80;;;;;;;-2.77;100.00;100733.81;5023632;28;20052;-70
2020/12/03 01:13:04;;;;;;;106.43;46.77;;;;;;;-2.78;100.00;100731.13;5025281;28;20128;-70
2020/12/03 01:15:31;;;;;;;112.20;46.93;;;;;;;-2.83;100.00;100729.28;5024292;28;20042;-70
2020/12/03 01:17:57;;;;;;;108.83;45.93;;;;;;;-2.83;100.00;100707.72;5007125;28;20099;-70
2020/12/03 01:20:26;;;;;;;99.37;49.23;;;;;;;-2.81;100.00;100715.53;5024048;28;20052;-69
2020/12/03 01:22:52;;;;;;;103.60;43.27;;;;;;;-2.90;100.00;100706.63;5006197;28;20042;-68
2020/12/03 01:25:20;;;;;;;107.53;47.07;;;;;;;-2.93;100.00;100709.13;4992892;28;20049;-70
2020/12/03 01:27:47;;;;;;;105.80;44.07;;;;;;;-2.92;100.00;100700.53;5005910;28;20129;-70
2020/12/03 01:30:13;;;;;;;96.03;43.27;;;;;;;-2.86;100.00;100694.69;5024399;28;20037;-70
2020/12/03 01:32:40;;;;;;;99.47;43.73;;;;;;;-2.90;100.00;100690.25;4990555;28;20034;-69
2020/12/03 01:35:08;;;;;;;98.63;44.37;;;;;;;-2.97;100.00;100686.56;5007395;28;20041;-69
2020/12/03 01:37:35;;;;;;;96.20;42.10;;;;;;;-2.93;100.00;100679.81;5009881;28;20116;-69
2020/12/03 01:40:02;;;;;;;99.73;44.90;;;;;;;-2.96;100.00;100677.09;5027778;28;20239;-70
2020/12/03 01:42:28;;;;;;;95.27;44.43;;;;;;;-2.95;100.00;100673.69;5011600;28;20091;-70
2020/12/03 01:44:55;;;;;;;104.23;42.67;;;;;;;-2.95;100.00;100671.97;5028809;28;20041;-69
2020/12/03 01:47:27;;;;;;;102.83;45.83;;;;;;;-2.96;100.00;100665.06;5028585;28;20549;-70
2020/12/03 01:49:53;;;;;;;99.33;44.17;;;;;;;-2.98;100.00;100664.13;5010876;28;20099;-69
2020/12/03 01:52:19;;;;;;;98.27;46.83;;;;;;;-2.99;100.00;100659.78;5027085;28;20087;-69
2020/12/03 01:54:46;;;;;;;96.60;46.43;;;;;;;-2.95;100.00;100655.59;5028958;28;20042;-69
2020/12/03 01:57:12;;;;;;;106.00;45.57;;;;;;;-2.91;100.00;100653.19;5010557;28;20037;-70
2020/12/03 01:59:41;;;;;;;103.97;43.47;;;;;;;-2.93;100.00;100644.50;5023013;28;20788;-69
2020/12/03 02:02:09;;;;;;;99.73;43.53;;;;;;;-2.95;100.00;100643.56;5010266;28;20111;-70
2020/12/03 02:04:35;;;;;;;98.30;41.43;;;;;;;-2.96;100.00;100649.56;5028581;28;20045;-70
2020/12/03 02:07:05;;;;;;;100.60;43.17;;;;;;;-2.92;100.00;100632.47;5010437;28;20053;-68
2020/12/03 02:09:32;;;;;;;90.10;42.27;;;;;;;-2.92;99.80;100620.41;5010836;28;20104;-68
2020/12/03 02:11:58;;;;;;;99.50;43.03;;;;;;;-2.96;100.00;100610.78;5009791;28;20470;-68
2020/12/03 02:14:24;;;;;;;94.67;42.60;;;;;;;-3.00;100.00;100606.34;5028157;28;20049;-68
2020/12/03 02:16:54;;;;;;;96.97;43.33;;;;;;;-3.00;100.00;100615.81;5010718;28;20107;-68
2020/12/03 02:19:29;;;;;;;100.80;44.33;;;;;;;-3.01;99.71;100609.78;5006368;28;20087;-68
2020/12/03 02:21:59;;;;;;;95.77;44.30;;;;;;;-3.00;100.00;100598.59;5009749;28;20693;-68
2020/12/03 02:24:33;;;;;;;98.57;43.63;;;;;;;-3.02;99.55;100595.09;5029651;23;20040;-66
2020/12/03 02:26:59;;;;;;;101.22;42.42;;;;;;;-3.05;99.30;100584.63;5048754;28;20532;-67
2020/12/03 02:29:26;;;;;;;90.77;41.10;;;;;;;-3.04;99.68;100585.50;5026269;28;20417;-66
2020/12/03 02:31:53;;;;;;;93.47;43.67;;;;;;;-3.05;99.95;100584.63;5012869;28;20041;-66
2020/12/03 02:34:20;;;;;;;105.10;44.27;;;;;;;-3.03;99.33;100575.22;5028630;28;20068;-67
2020/12/03 02:36:51;;;;;;;91.47;42.50;;;;;;;-3.00;99.60;100567.59;5027382;28;20542;-66
2020/12/03 02:39:18;;;;;;;88.20;41.60;;;;;;;-2.93;98.20;100563.50;5028427;28;20038;-66
2020/12/03 02:41:44;;;;;;;94.87;41.33;;;;;;;-3.01;98.23;100558.06;5025112;28;20045;-67
2020/12/03 02:44:10;;;;;;;103.93;44.50;;;;;;;-3.06;99.06;100548.41;5028438;28;20041;-67
2020/12/03 02:46:36;;;;;;;100.00;42.80;;;;;;;-3.06;98.71;100556.16;5009152;28;20033;-67
2020/12/03 02:49:03;;;;;;;99.63;42.83;;;;;;;-3.03;97.91;100541.63;5021745;28;20069;-67
2020/12/03 02:51:29;;;;;;;93.87;41.57;;;;;;;-3.11;98.42;100535.34;5025763;28;20046;-66
2020/12/03 02:53:55;;;;;;;88.17;41.10;;;;;;;-3.16;98.73;100531.72;5005679;28;20091;-67
2020/12/03 02:56:21;;;;;;;93.30;43.77;;;;;;;-3.14;98.71;100536.13;5007293;28;20039;-66
2020/12/03 02:58:50;;;;;;;95.13;41.77;;;;;;;-3.20;98.90;100527.28;5011129;28;20140;-66
2020/12/03 03:01:16;;;;;;;99.40;44.03;;;;;;;-3.24;99.60;100522.84;5027399;28;20449;-67
2020/12/03 03:03:42;;;;;;;92.07;41.77;;;;;;;-3.28;99.75;100526.16;5025825;28;20037;-66
2020/12/03 03:06:10;;;;;;;94.43;40.73;;;;;;;-3.27;99.09;100515.00;5026320;28;20711;-67
2020/12/03 03:08:36;;;;;;;99.27;42.63;;;;;;;-3.24;99.06;100525.44;5026506;28;20041;-67
2020/12/03 03:11:02;;;;;;;103.00;42.27;;;;;;;-3.29;99.74;100519.22;5017127;28;20038;-67
2020/12/03 03:13:28;;;;;;;96.27;41.93;;;;;;;-3.35;99.22;100514.75;5009451;28;20038;-67
2020/12/03 03:15:55;;;;;;;100.07;43.40;;;;;;;-3.34;99.35;100518.22;4995341;28;20513;-67
2020/12/03 03:18:22;;;;;;;99.37;41.70;;;;;;;-3.35;99.95;100506.13;5019409;28;20119;-66
2020/12/03 03:20:49;;;;;;;99.20;42.40;;;;;;;-3.36;99.47;100510.44;5028815;28;20038;-67
2020/12/03 03:23:15;;;;;;;95.07;40.20;;;;;;;-3.40;99.79;100509.44;5021501;28;20080;-67
2020/12/03 03:25:41;;;;;;;95.17;43.13;;;;;;;-3.40;99.53;100514.59;5028566;28;20045;-66
2020/12/03 03:28:08;;;;;;;98.20;43.77;;;;;;;-3.34;99.30;100519.09;4998290;28;20041;-67
2020/12/03 03:30:35;;;;;;;95.47;40.93;;;;;;;-3.34;99.96;100520.81;5026622;28;20033;-67
2020/12/03 03:33:02;;;;;;;102.73;46.10;;;;;;;-3.33;99.85;100515.69;5011410;28;20041;-67
2020/12/03 03:35:28;;;;;;;98.73;43.57;;;;;;;-3.32;99.57;100519.13;5017423;28;20045;-67
2020/12/03 03:37:56;;;;;;;103.83;44.27;;;;;;;-3.29;98.94;100508.91;5028598;28;20103;-67
2020/12/03 03:40:22;;;;;;;98.57;42.57;;;;;;;-3.22;99.66;100516.91;5027139;28;20130;-66
2020/12/03 03:42:48;;;;;;;102.43;43.83;;;;;;;-3.26;98.77;100514.19;5009782;28;20037;-67
2020/12/03 03:45:14;;;;;;;105.27;43.70;;;;;;;-3.25;99.03;100505.59;5027874;28;20494;-67
2020/12/03 03:47:41;;;;;;;97.33;43.20;;;;;;;-3.28;99.00;100505.47;5027620;28;20092;-66
2020/12/03 03:50:08;;;;;;;93.27;41.23;;;;;;;-3.23;98.85;100493.59;5025434;28;20692;-66
2020/12/03 03:52:35;;;;;;;97.97;43.57;;;;;;;-3.24;98.35;100486.69;5028174;28;20064;-66
2020/12/03 03:55:02;;;;;;;98.77;43.83;;;;;;;-3.19;98.72;100493.75;5010299;28;20041;-66
2020/12/03 03:57:28;;;;;;;97.77;41.30;;;;;;;-3.20;98.75;100478.19;5012572;28;20573;-66
2020/12/03 03:59:54;;;;;;;98.40;41.77;;;;;;;-3.16;98.06;100483.53;5027563;28;20095;-66
2020/12/03 04:02:21;;;;;;;95.13;40.70;;;;;;;-3.19;98.78;100482.56;5009502;28;20030;-66
2020/12/03 04:04:48;;;;;;;107.73;44.97;;;;;;;-3.20;98.58;100479.06;5010811;28;20124;-67
2020/12/03 04:07:15;;;;;;;95.37;43.57;;;;;;;-3.21;98.12;100466.09;5028389;28;20042;-67
2020/12/03 04:09:42;;;;;;;90.80;41.90;;;;;;;-3.08;97.69;100464.81;4993707;28;20396;-67
2020/12/03 04:12:08;;;;;;;107.80;45.37;;;;;;;-3.15;97.59;100456.84;5025082;28;20037;-67
2020/12/03 04:14:34;;;;;;;99.27;41.90;;;;;;;-3.09;98.01;100444.97;5025940;28;20045;-66
2020/12/03 04:17:00;;;;;;;103.83;43.70;;;;;;;-3.17;98.35;100457.63;5028358;28;20573;-67
2020/12/03 04:19:27;;;;;;;104.60;42.73;;;;;;;-3.10;97.37;100446.66;5009418;28;20065;-66
2020/12/03 04:21:56;;;;;;;99.40;42.70;;;;;;;-3.05;97.50;100455.41;5009318;28;20095;-68
2020/12/03 04:24:22;;;;;;;103.03;44.40;;;;;;;-3.12;97.86;100463.81;5013201;28;20037;-67
2020/12/03 04:26:49;;;;;;;107.93;43.27;;;;;;;-3.15;97.83;100451.69;5011320;28;20039;-67
2020/12/03 04:29:15;;;;;;;103.30;44.53;;;;;;;-3.16;98.04;100449.06;5011299;28;20037;-67
2020/12/03 04:31:43;;;;;;;94.47;42.80;;;;;;;-3.15;98.13;100448.22;5023643;28;20041;-67
2020/12/03 04:34:09;;;;;;;95.17;43.13;;;;;;;-3.14;98.42;100439.63;5011383;28;20099;-67
2020/12/03 04:36:36;;;;;;;108.03;43.57;;;;;;;-3.15;98.03;100430.13;5010121;28;20079;-67
2020/12/03 04:39:04;;;;;;;91.07;43.03;;;;;;;-3.09;97.36;100434.63;5010892;28;20463;-67
2020/12/03 04:41:30;;;;;;;98.23;40.93;;;;;;;-3.15;97.77;100446.50;5009850;28;20095;-67
2020/12/03 04:44:19;;;;;;;97.57;42.33;;;;;;;-3.08;97.51;100436.38;5010417;28;20170;-68
2020/12/03 04:47:21;;;;;;;92.20;40.33;;;;;;;-3.08;96.19;100433.78;5004445;28;20054;-67
2020/12/03 04:50:07;;;;;;;101.50;40.67;;;;;;;-3.08;97.21;100441.53;5006939;28;20049;-67
2020/12/03 04:52:57;;;;;;;98.87;42.37;;;;;;;-3.10;96.78;100438.03;5025060;28;20041;-67
2020/12/03 04:55:30;;;;;;;97.50;40.07;;;;;;;-3.12;97.10;100443.13;5007540;28;20049;-67
2020/12/03 04:58:07;;;;;;;95.18;38.55;;;;;;;-3.15;97.25;100432.72;5027249;28;20052;-67
2020/12/03 05:00:48;;;;;;;104.27;42.40;;;;;;;-3.13;96.85;100424.16;5004021;28;20037;-67
2020/12/03 05:03:14;;;;;;;91.93;40.03;;;;;;;-3.15;97.65;100422.38;5022159;28;20033;-67
2020/12/03 05:06:17;;;;;;;105.47;42.93;;;;;;;-3.09;96.34;100425.16;5017295;28;20037;-67
2020/12/03 05:08:55;;;;;;;91.83;40.87;;;;;;;-3.09;97.38;100426.88;5008628;28;20041;-68
2020/12/03 05:11:26;;;;;;;89.37;40.50;;;;;;;-3.09;97.31;100417.41;5008794;28;20033;-68
2020/12/03 05:13:58;;;;;;;94.33;40.07;;;;;;;-3.07;97.47;100425.19;5009146;28;20088;-67
2020/12/03 05:16:32;;;;;;;99.73;43.57;;;;;;;-3.14;97.11;100413.78;5009234;28;20041;-67
2020/12/03 05:19:02;;;;;;;90.73;42.13;;;;;;;-3.15;97.48;100412.03;5008239;28;20077;-68
2020/12/03 05:21:30;;;;;;;108.23;44.70;;;;;;;-3.14;97.67;100421.53;5008806;28;20482;-67
2020/12/03 05:23:57;;;;;;;93.40;40.10;;;;;;;-3.15;97.98;100410.34;5026072;28;20073;-67
2020/12/03 05:26:29;;;;;;;96.90;42.00;;;;;;;-3.16;97.27;100413.75;5010816;28;20049;-67
2020/12/03 05:28:58;;;;;;;93.27;41.57;;;;;;;-3.08;97.33;100410.53;5005503;28;20073;-67
2020/12/03 05:31:25;;;;;;;92.20;39.00;;;;;;;-3.12;97.78;100404.38;5018028;28;20065;-67
2020/12/03 05:33:52;;;;;;;101.17;42.83;;;;;;;-3.13;97.87;100400.91;5026210;28;20091;-67
2020/12/03 05:36:31;;;;;;;96.77;42.47;;;;;;;-3.15;97.55;100396.53;5001454;28;20034;-67
2020/12/03 05:38:59;;;;;;;90.00;38.97;;;;;;;-3.14;97.70;100393.13;4993330;28;20046;-67
2020/12/03 05:41:34;;;;;;;96.23;40.17;;;;;;;-3.10;97.61;100382.06;5008560;28;20176;-67
2020/12/03 05:44:05;;;;;;;95.57;40.87;;;;;;;-3.09;97.77;100381.22;5026209;28;20037;-67
2020/12/03 05:46:32;;;;;;;82.90;39.77;;;;;;;-3.12;97.50;100381.13;5002848;28;20033;-67
2020/12/03 05:49:03;;;;;;;94.53;40.87;;;;;;;-3.12;97.48;100379.41;5026380;28;20172;-67
2020/12/03 05:51:33;;;;;;;94.80;41.87;;;;;;;-3.14;96.99;100370.75;5009003;28;20038;-67
2020/12/03 05:54:03;;;;;;;103.50;41.90;;;;;;;-3.06;97.18;100383.03;5027419;28;20052;-67
2020/12/03 05:56:31;;;;;;;90.20;40.20;;;;;;;-3.12;97.15;100384.59;5026484;28;20037;-67
2020/12/03 05:59:33;;;;;;;91.10;38.37;;;;;;;-3.11;96.46;100375.16;5020068;28;20434;-67
2020/12/03 06:02:09;;;;;;;99.70;39.93;;;;;;;-3.13;97.12;100381.97;4981517;28;20073;-67
2020/12/03 06:04:46;;;;;;;89.07;38.63;;;;;;;-3.07;96.63;100381.28;5001747;28;20507;-67
2020/12/03 06:08:05;;;;;;;88.03;37.30;;;;;;;-3.11;97.16;100377.72;5024469;28;20037;-67
2020/12/03 06:10:53;;;;;;;85.50;36.63;;;;;;;-3.15;96.84;100376.75;5004145;28;20429;-67
2020/12/03 06:13:28;;;;;;;95.30;38.97;;;;;;;-3.15;96.99;100366.41;5024111;28;20080;-67
2020/12/03 06:16:02;;;;;;;88.07;39.78;;;;;;;-3.12;97.05;100369.06;5001160;28;20038;-67
2020/12/03 06:18:31;;;;;;;87.85;37.95;;;;;;;-3.13;96.44;100367.31;5009402;28;20046;-67
2020/12/03 06:21:13;;;;;;;88.07;37.57;;;;;;;-3.16;97.82;100358.63;5025629;28;20041;-67
2020/12/03 06:23:49;;;;;;;86.27;39.30;;;;;;;-3.15;97.14;100357.78;5012808;28;20448;-67
2020/12/03 06:26:25;;;;;;;98.90;39.70;;;;;;;-3.11;97.22;100359.66;5029052;28;20092;-67
2020/12/03 06:29:10;;;;;;;84.93;36.30;;;;;;;-3.13;96.75;100346.66;5027992;28;20045;-67
2020/12/03 06:32:14;;;;;;;93.63;38.77;;;;;;;-3.15;96.40;100347.44;5029582;28;20041;-67
2020/12/03 06:34:45;;;;;;;92.83;38.23;;;;;;;-3.18;97.06;100347.38;5029995;28;20111;-67
2020/12/03 06:37:19;;;;;;;87.97;38.73;;;;;;;-3.21;97.29;100348.13;5011339;28;20064;-68
2020/12/03 06:39:49;;;;;;;93.32;36.50;;;;;;;-3.18;97.51;100347.38;5007552;28;20041;-67
2020/12/03 06:42:28;;;;;;;86.93;36.53;;;;;;;-3.11;97.20;100346.72;5025793;28;20540;-67
2020/12/03 06:45:17;;;;;;;94.27;38.37;;;;;;;-3.18;96.59;100345.66;4999767;28;20053;-67
2020/12/03 06:47:58;;;;;;;85.87;38.27;;;;;;;-3.19;97.20;100335.28;5029914;28;20042;-67
2020/12/03 06:50:59;;;;;;;77.87;35.63;;;;;;;-3.17;97.59;100346.53;5029573;28;20045;-67
2020/12/03 06:54:02;;;;;;;90.20;38.97;;;;;;;-3.18;97.25;100348.25;5011234;28;20095;-67
2020/12/03 06:56:52;;;;;;;83.80;36.80;;;;;;;-3.18;97.53;100353.41;5011061;28;20049;-67
2020/12/03 06:59:50;;;;;;;80.97;36.07;;;;;;;-3.17;98.01;100349.13;5030236;28;20072;-67
2020/12/03 07:02:29;;;;;;;84.30;34.37;;;;;;;-3.14;97.83;100349.19;5005491;28;20446;-67
2020/12/03 07:05:35;;;;;;;84.60;35.77;;;;;;;-3.14;97.48;100355.25;5012814;28;20037;-67
2020/12/03 07:08:32;;;;;;;83.50;36.23;;;;;;;-3.12;97.29;100353.56;5029718;28;20069;-67
2020/12/03 07:11:35;;;;;;;79.17;33.80;;;;;;;-3.13;98.03;100345.78;5000045;28;20049;-67
2020/12/03 07:14:23;;;;;;;79.63;35.57;;;;;;;-3.14;97.55;100350.06;5011427;28;20033;-67
2020/12/03 07:17:08;;;;;;;88.87;34.77;;;;;;;-3.12;98.22;100343.25;5021342;28;20089;-67
2020/12/03 07:20:03;;;;;;;79.33;36.00;;;;;;;-3.08;97.85;100339.06;5015730;28;20061;-67
2020/12/03 07:22:42;;;;;;;78.97;35.25;;;;;;;-3.07;97.24;100324.41;5023635;28;20116;-67
2020/12/03 07:25:09;;;;;;;82.90;37.77;;;;;;;-3.06;97.70;100327.03;5026240;28;20046;-67
2020/12/03 07:28:10;;;;;;;77.63;34.63;;;;;;;-3.05;97.60;100320.16;5040503;28;20041;-68
2020/12/03 07:30:44;;;;;;;84.40;34.43;;;;;;;-2.93;96.36;100312.78;5024948;28;20107;-67
2020/12/03 07:33:23;;;;;;;74.90;35.28;;;;;;;-2.90;95.83;100320.59;5019120;28;20122;-67
2020/12/03 07:36:20;;;;;;;80.43;36.67;;;;;;;-2.96;96.26;100303.22;5006380;28;20061;-67
2020/12/03 07:39:00;;;;;;;81.27;35.77;;;;;;;-2.93;96.25;100305.91;5028055;28;20037;-67
2020/12/03 07:41:28;;;;;;;81.30;36.43;;;;;;;-2.90;96.18;100305.97;5011481;28;20033;-67
2020/12/03 07:44:41;;;;;;;81.27;35.73;;;;;;;-2.90;96.40;100289.59;5027656;28;20507;-67
2020/12/03 07:47:33;;;;;;;81.37;34.70;;;;;;;-2.84;96.53;100292.34;5013492;28;20061;-67
2020/12/03 07:50:06;;;;;;;84.13;35.47;;;;;;;-2.82;96.10;100280.34;5013847;28;20073;-67
2020/12/03 07:52:39;;;;;;;71.10;33.47;;;;;;;-2.82;95.77;100282.91;5027184;28;20111;-67
2020/12/03 07:55:20;;;;;;;85.50;36.77;;;;;;;-2.76;95.55;100277.06;5022042;28;20045;-67
2020/12/03 07:57:53;;;;;;;80.00;35.23;;;;;;;-2.80;95.38;100281.25;5027532;28;20608;-67
2020/12/03 08:00:34;;;;;;;89.50;37.40;;;;;;;-2.74;95.60;100278.84;5011643;28;20045;-67
2020/12/03 08:03:02;;;;;;;81.43;36.77;;;;;;;-2.71;95.22;100275.44;4997488;28;20509;-68
2020/12/03 08:05:42;;;;;;;77.83;37.57;;;;;;;-2.75;95.20;100277.09;5007961;28;20042;-67
2020/12/03 08:08:21;;;;;;;87.37;36.53;;;;;;;-2.71;94.86;100280.63;5009175;28;20103;-67
2020/12/03 08:10:47;;;;;;;84.63;36.70;;;;;;;-2.72;95.13;100284.91;5012580;28;20430;-67
2020/12/03 08:13:26;;;;;;;77.07;33.47;;;;;;;-2.72;95.47;100276.28;5026614;28;20038;-67
2020/12/03 08:16:02;;;;;;;77.23;33.73;;;;;;;-2.60;95.18;100279.22;5009596;28;20057;-67
2020/12/03 08:18:44;;;;;;;73.07;33.30;;;;;;;-2.59;94.58;100270.63;5009205;28;20045;-67
2020/12/03 08:21:13;;;;;;;74.83;34.50;;;;;;;-2.57;94.55;100256.88;5013481;28;20091;-67
2020/12/03 08:23:39;;;;;;;80.30;34.90;;;;;;;-2.58;94.70;100259.44;5016313;28;20042;-67
2020/12/03 08:26:31;;;;;;;74.50;32.70;;;;;;;-2.56;94.49;100262.94;5010256;28;20651;-67
2020/12/03 08:28:57;;;;;;;82.87;34.33;;;;;;;-2.51;93.99;100263.94;5035006;28;20405;-68
2020/12/03 08:31:23;;;;;;;83.77;34.03;;;;;;;-2.48;93.73;100256.25;5019260;28;20038;-67
2020/12/03 08:33:53;;;;;;;71.50;33.80;;;;;;;-2.48;93.45;100260.53;5020426;28;20037;-68
2020/12/03 08:36:20;;;;;;;83.13;34.93;;;;;;;-2.44;93.84;100252.00;4992529;28;20097;-68
2020/12/03 08:38:52;;;;;;;74.03;34.23;;;;;;;-2.37;94.27;100249.59;5001853;28;20129;-69
2020/12/03 08:41:19;;;;;;;78.70;34.23;;;;;;;-2.25;92.82;100243.00;5008295;28;20034;-68
2020/12/03 08:43:51;;;;;;;75.23;34.97;;;;;;;-2.27;92.80;100238.69;4996839;28;20046;-68
2020/12/03 08:46:23;;;;;;;71.80;32.70;;;;;;;-2.22;92.68;100233.59;5024305;28;20037;-68
2020/12/03 08:48:49;;;;;;;74.70;33.37;;;;;;;-2.14;92.09;100239.81;5009490;28;20119;-68
2020/12/03 08:51:17;;;;;;;68.77;32.10;;;;;;;-2.11;92.00;100237.31;5025487;28;20045;-68
2020/12/03 08:53:46;;;;;;;68.50;32.33;;;;;;;-2.08;92.70;100228.75;5008273;28;20065;-68
2020/12/03 08:56:15;;;;;;;68.27;31.63;;;;;;;-2.02;91.71;100227.19;5007921;28;20622;-68
2020/12/03 08:58:43;;;;;;;71.27;31.40;;;;;;;-1.94;92.15;100222.16;5024685;28;20745;-68
2020/12/03 09:01:11;;;;;;;70.47;34.27;;;;;;;-1.91;90.43;100231.72;5025897;28;20073;-68
2020/12/03 09:03:38;;;;;;;67.00;32.70;;;;;;;-1.98;90.38;100217.78;5000973;28;20041;-68
2020/12/03 09:06:04;;;;;;;73.37;33.30;;;;;;;-2.00;90.66;100220.31;5006082;28;20450;-68
2020/12/03 09:08:30;;;;;;;81.93;35.53;;;;;;;-1.90;91.85;100218.81;5019976;28;20049;-68
2020/12/03 09:10:58;;;;;;;71.93;35.37;;;;;;;-1.76;90.60;100216.53;4987995;28;20552;-68
2020/12/03 09:13:24;;;;;;;76.60;35.83;;;;;;;-1.76;89.29;100214.81;5005084;28;20045;-68
2020/12/03 09:15:53;;;;;;;73.87;32.30;;;;;;;-1.75;89.60;100221.75;5025604;28;20041;-68
2020/12/03 09:18:19;;;;;;;76.67;35.30;;;;;;;-1.74;89.49;100204.50;5003208;28;20675;-68
2020/12/03 09:20:46;;;;;;;76.73;35.30;;;;;;;-1.80;89.27;100204.34;4987532;28;20046;-68
2020/12/03 09:23:24;;;;;;;72.77;32.17;;;;;;;-1.72;89.39;100198.50;4988911;28;20104;-68
2020/12/03 09:25:51;;;;;;;80.60;34.37;;;;;;;-1.72;89.32;100198.50;4988445;28;20077;-68
2020/12/03 09:28:18;;;;;;;83.50;33.17;;;;;;;-1.87;89.81;100195.56;5011745;28;20076;-68
2020/12/03 09:30:49;;;;;;;73.00;33.33;;;;;;;-1.83;90.40;100192.22;4992689;28;20111;-69
2020/12/03 09:33:19;;;;;;;77.63;33.87;;;;;;;-1.81;90.79;100184.50;5007919;28;20037;-68
2020/12/03 09:35:47;;;;;;;73.47;32.70;;;;;;;-1.84;90.05;100180.13;5003390;28;20121;-68
2020/12/03 09:38:15;;;;;;;71.87;31.97;;;;;;;-1.77;90.71;100181.09;5008131;28;20686;-68
2020/12/03 09:40:48;;;;;;;72.60;32.10;;;;;;;-1.79;90.40;100183.66;5007613;28;20172;-68
2020/12/03 09:43:23;;;;;;;70.60;33.37;;;;;;;-1.71;91.20;100182.13;5025557;28;20426;-68
2020/12/03 09:45:55;;;;;;;71.10;33.50;;;;;;;-1.62;90.04;100171.06;4993841;28;20800;-68
2020/12/03 09:48:21;;;;;;;68.00;31.40;;;;;;;-1.54;88.79;100168.66;4995855;28;20052;-68
2020/12/03 09:50:49;;;;;;;68.07;31.33;;;;;;;-1.64;88.32;100165.00;4994607;28;20045;-68
2020/12/03 09:53:17;;;;;;;71.23;32.40;;;;;;;-1.60;88.61;100152.97;5026043;28;20061;-68
2020/12/03 09:55:44;;;;;;;74.53;34.43;;;;;;;-1.61;88.74;100151.22;5008536;28;20167;-69
2020/12/03 09:58:10;;;;;;;72.63;31.83;;;;;;;-1.61;89.01;100135.69;4980556;28;20046;-68
2020/12/03 10:00:40;;;;;;;67.10;33.77;;;;;;;-1.63;89.53;100127.88;4990002;28;20653;-68
2020/12/03 10:03:26;;;;;;;79.90;33.93;;;;;;;-1.63;89.14;100116.66;4992904;28;20058;-68
2020/12/03 10:06:04;;;;;;;70.07;33.90;;;;;;;-1.59;90.17;100109.00;4979944;28;20042;-68
2020/12/03 10:08:49;;;;;;;67.60;31.30;;;;;;;-1.62;89.19;100114.09;5005200;28;20070;-68
2020/12/03 10:11:28;;;;;;;70.73;32.23;;;;;;;-1.64;89.44;100107.16;4991657;28;20041;-68
2020/12/03 10:14:35;;;;;;;64.93;28.67;;;;;;;-1.55;88.80;100105.59;5012817;28;20045;-69
2020/12/03 10:17:04;;;;;;;67.33;29.93;;;;;;;-1.52;88.18;100105.66;5006458;28;20535;-68
2020/12/03 10:19:36;;;;;;;67.43;31.23;;;;;;;-1.48;88.45;100104.00;5003685;28;20042;-68
2020/12/03 10:22:04;;;;;;;70.37;31.17;;;;;;;-1.44;88.30;100100.63;4991834;28;20289;-68
2020/12/03 10:25:14;;;;;;;70.27;33.50;;;;;;;-1.47;87.30;100087.63;5003480;28;20057;-68
2020/12/03 10:27:59;;;;;;;62.10;31.27;;;;;;;-1.38;88.09;100092.09;4983799;28;20057;-68
2020/12/03 10:30:37;;;;;;;62.47;30.07;;;;;;;-1.32;85.91;100079.25;5022330;28;20107;-67
2020/12/03 10:33:08;;;;;;;62.03;29.90;;;;;;;-1.29;86.04;100072.41;4995825;28;20380;-68
2020/12/03 10:35:41;;;;;;;66.40;31.13;;;;;;;-1.29;86.46;100076.72;5006416;28;20053;-68
2020/12/03 10:38:11;;;;;;;63.80;30.33;;;;;;;-1.17;85.96;100076.94;4991489;28;20048;-68
2020/12/03 10:40:37;;;;;;;66.37;30.27;;;;;;;-1.22;85.83;100079.44;5006990;28;20077;-68
2020/12/03 10:43:15;;;;;;;69.20;30.35;;;;;;;-1.17;85.41;100083.00;5007527;28;20068;-68
2020/12/03 10:45:44;;;;;;;68.73;31.53;;;;;;;-1.09;85.70;100069.28;5007579;28;20046;-68
2020/12/03 10:48:17;;;;;;;64.40;30.93;;;;;;;-0.94;84.84;100062.63;4993922;28;20950;-68
2020/12/03 10:50:46;;;;;;;64.43;31.57;;;;;;;-0.96;84.62;100046.19;4985899;28;20117;-68
2020/12/03 10:53:12;;;;;;;64.07;29.03;;;;;;;-0.87;85.47;100042.84;5009804;28;20036;-68
2020/12/03 10:55:39;;;;;;;67.17;31.47;;;;;;;-0.79;84.86;100033.47;5019646;28;20042;-68
2020/12/03 10:58:10;;;;;;;56.50;27.57;;;;;;;-0.80;83.72;100025.69;4992924;28;20038;-69
2020/12/03 11:00:36;;;;;;;64.37;28.00;;;;;;;-0.76;84.18;100032.63;5008261;28;20095;-68
2020/12/03 11:03:03;;;;;;;62.30;29.30;;;;;;;-0.67;83.96;100019.84;4995221;28;20042;-69
2020/12/03 11:05:30;;;;;;;62.80;31.77;;;;;;;-0.61;83.45;100023.38;4992096;28;20042;-69
2020/12/03 11:07:57;;;;;;;57.90;27.70;;;;;;;-0.69;83.84;100011.13;5003163;28;20572;-68
2020/12/03 11:10:24;;;;;;;59.20;28.07;;;;;;;-0.86;83.41;100009.16;5028493;28;20033;-68
2020/12/03 11:12:52;;;;;;;66.00;29.43;;;;;;;-0.95;84.60;100002.97;5030066;28;20049;-68
2020/12/03 11:15:23;;;;;;;65.43;30.90;;;;;;;-0.94;85.58;100003.00;5011682;28;20033;-68
2020/12/03 11:17:53;;;;;;;66.57;30.27;;;;;;;-1.05;86.86;99998.50;5029731;28;20038;-68
2020/12/03 11:20:40;;;;;;;64.20;29.83;;;;;;;-1.00;87.19;100002.91;5013860;28;20038;-69
2020/12/03 11:23:08;;;;;;;68.80;30.87;;;;;;;-1.09;88.34;99994.09;5020060;28;20042;-68
2020/12/03 11:25:35;;;;;;;54.13;26.87;;;;;;;-1.05;88.87;99988.13;5025191;28;20048;-68
2020/12/03 11:28:10;;;;;;;61.17;27.77;;;;;;;-1.05;88.73;99986.41;5021907;28;20050;-69
2020/12/03 11:30:37;;;;;;;72.47;30.87;;;;;;;-1.14;88.57;99992.31;5015029;28;20038;-68